sensor_id;sensor_type;location;lat;lon;timestamp;temperature;humidity
68766;DHT22;55756;45.582;11.484;2023-04-24T00:00:16;18.40;67.60
68766;DHT22;55756;45.582;11.484;2023-04-24T00:02:44;18.40;67.70
68766;DHT22;55756;45.582;11.484;2023-04-24T00:05:16;18.40;67.90
68766;DHT22;55756;45.582;11.484;2023-04-24T00:07:44;18.40;67.90
68766;DHT22;55756;45.582;11.484;2023-04-24T00:10:10;18.40;68.00
68766;DHT22;55756;45.582;11.484;2023-04-24T00:12:36;18.30;68.10
68766;DHT22;55756;45.582;11.484;2023-04-24T00:15:02;18.30;68.30
68766;DHT22;55756;45.582;11.484;2023-04-24T00:17:28;18.40;68.30
68766;DHT22;55756;45.582;11.484;2023-04-24T00:19:54;18.30;68.40
68766;DHT22;55756;45.582;11.484;2023-04-24T00:22:30;18.30;68.50
68766;DHT22;55756;45.582;11.484;2023-04-24T00:24:56;18.30;68.70
68766;DHT22;55756;45.582;11.484;2023-04-24T00:27:23;18.20;68.80
68766;DHT22;55756;45.582;11.484;2023-04-24T00:29:49;18.20;69.00
68766;DHT22;55756;45.582;11.484;2023-04-24T00:32:15;18.30;68.80
68766;DHT22;55756;45.582;11.484;2023-04-24T00:34:41;18.20;68.90
68766;DHT22;55756;45.582;11.484;2023-04-24T00:37:07;18.20;69.10
68766;DHT22;55756;45.582;11.484;2023-04-24T00:39:33;18.20;69.00
68766;DHT22;55756;45.582;11.484;2023-04-24T00:41:59;18.20;69.10
68766;DHT22;55756;45.582;11.484;2023-04-24T00:44:25;18.20;69.20
68766;DHT22;55756;45.582;11.484;2023-04-24T00:46:51;18.20;69.40
68766;DHT22;55756;45.582;11.484;2023-04-24T00:49:21;18.20;69.50
68766;DHT22;55756;45.582;11.484;2023-04-24T00:51:47;18.20;69.50
68766;DHT22;55756;45.582;11.484;2023-04-24T00:54:14;18.20;69.30
68766;DHT22;55756;45.582;11.484;2023-04-24T00:56:41;18.20;69.30
68766;DHT22;55756;45.582;11.484;2023-04-24T00:59:09;18.20;69.30
68766;DHT22;55756;45.582;11.484;2023-04-24T01:01:35;18.20;69.40
68766;DHT22;55756;45.582;11.484;2023-04-24T01:04:02;18.20;69.20
68766;DHT22;55756;45.582;11.484;2023-04-24T01:06:29;18.10;69.30
68766;DHT22;55756;45.582;11.484;2023-04-24T01:08:57;18.10;69.40
68766;DHT22;55756;45.582;11.484;2023-04-24T01:11:24;18.10;69.50
68766;DHT22;55756;45.582;11.484;2023-04-24T01:13:51;18.20;69.30
68766;DHT22;55756;45.582;11.484;2023-04-24T01:16:18;18.20;69.10
68766;DHT22;55756;45.582;11.484;2023-04-24T01:18:46;18.20;69.20
68766;DHT22;55756;45.582;11.484;2023-04-24T01:21:14;18.20;69.10
68766;DHT22;55756;45.582;11.484;2023-04-24T01:23:43;18.20;69.00
68766;DHT22;55756;45.582;11.484;2023-04-24T01:26:09;18.20;69.00
68766;DHT22;55756;45.582;11.484;2023-04-24T01:28:35;18.30;69.00
68766;DHT22;55756;45.582;11.484;2023-04-24T01:31:04;18.30;68.80
68766;DHT22;55756;45.582;11.484;2023-04-24T01:33:29;18.30;68.80
68766;DHT22;55756;45.582;11.484;2023-04-24T01:35:55;18.20;68.80
68766;DHT22;55756;45.582;11.484;2023-04-24T01:38:22;18.20;68.80
68766;DHT22;55756;45.582;11.484;2023-04-24T01:40:47;18.20;68.80
68766;DHT22;55756;45.582;11.484;2023-04-24T01:43:13;18.30;68.80
68766;DHT22;55756;45.582;11.484;2023-04-24T01:45:39;18.20;68.70
68766;DHT22;55756;45.582;11.484;2023-04-24T01:48:05;18.20;68.70
68766;DHT22;55756;45.582;11.484;2023-04-24T01:50:31;18.20;68.70
68766;DHT22;55756;45.582;11.484;2023-04-24T01:52:57;18.20;68.50
68766;DHT22;55756;45.582;11.484;2023-04-24T01:55:23;18.20;68.30
68766;DHT22;55756;45.582;11.484;2023-04-24T01:57:49;18.30;68.20
68766;DHT22;55756;45.582;11.484;2023-04-24T02:00:15;18.20;68.20
68766;DHT22;55756;45.582;11.484;2023-04-24T02:02:41;18.20;68.20
68766;DHT22;55756;45.582;11.484;2023-04-24T02:05:08;18.20;68.00
68766;DHT22;55756;45.582;11.484;2023-04-24T02:07:35;18.20;68.00
68766;DHT22;55756;45.582;11.484;2023-04-24T02:10:01;18.20;68.00
68766;DHT22;55756;45.582;11.484;2023-04-24T02:12:27;18.20;68.00
68766;DHT22;55756;45.582;11.484;2023-04-24T02:14:53;18.10;68.00
68766;DHT22;55756;45.582;11.484;2023-04-24T02:17:19;18.10;68.00
68766;DHT22;55756;45.582;11.484;2023-04-24T02:19:45;18.10;67.90
68766;DHT22;55756;45.582;11.484;2023-04-24T02:22:11;18.10;67.80
68766;DHT22;55756;45.582;11.484;2023-04-24T02:24:38;18.10;67.70
68766;DHT22;55756;45.582;11.484;2023-04-24T02:27:04;18.20;67.50
68766;DHT22;55756;45.582;11.484;2023-04-24T02:29:30;18.20;67.50
68766;DHT22;55756;45.582;11.484;2023-04-24T02:31:56;18.20;67.40
68766;DHT22;55756;45.582;11.484;2023-04-24T02:34:22;18.20;67.40
68766;DHT22;55756;45.582;11.484;2023-04-24T02:36:48;18.20;67.40
68766;DHT22;55756;45.582;11.484;2023-04-24T02:39:15;18.20;67.50
68766;DHT22;55756;45.582;11.484;2023-04-24T02:41:43;18.20;67.40
68766;DHT22;55756;45.582;11.484;2023-04-24T02:44:09;18.20;67.20
68766;DHT22;55756;45.582;11.484;2023-04-24T02:46:35;18.20;67.10
68766;DHT22;55756;45.582;11.484;2023-04-24T02:49:01;18.20;67.10
68766;DHT22;55756;45.582;11.484;2023-04-24T02:51:26;18.30;67.10
68766;DHT22;55756;45.582;11.484;2023-04-24T02:53:52;18.30;67.20
68766;DHT22;55756;45.582;11.484;2023-04-24T02:56:18;18.20;67.20
68766;DHT22;55756;45.582;11.484;2023-04-24T02:58:44;18.20;67.40
68766;DHT22;55756;45.582;11.484;2023-04-24T03:01:10;18.20;67.50
68766;DHT22;55756;45.582;11.484;2023-04-24T03:03:37;18.20;67.60
68766;DHT22;55756;45.582;11.484;2023-04-24T03:06:03;18.20;67.50
68766;DHT22;55756;45.582;11.484;2023-04-24T03:08:31;18.20;67.70
68766;DHT22;55756;45.582;11.484;2023-04-24T03:10:57;18.20;67.70
68766;DHT22;55756;45.582;11.484;2023-04-24T03:13:23;18.20;67.90
68766;DHT22;55756;45.582;11.484;2023-04-24T03:15:49;18.20;68.00
68766;DHT22;55756;45.582;11.484;2023-04-24T03:18:15;18.20;68.30
68766;DHT22;55756;45.582;11.484;2023-04-24T03:20:42;18.20;68.50
68766;DHT22;55756;45.582;11.484;2023-04-24T03:23:08;18.20;68.50
68766;DHT22;55756;45.582;11.484;2023-04-24T03:25:34;18.10;68.70
68766;DHT22;55756;45.582;11.484;2023-04-24T03:28:01;18.10;69.00
68766;DHT22;55756;45.582;11.484;2023-04-24T03:30:42;18.10;69.10
68766;DHT22;55756;45.582;11.484;2023-04-24T03:33:09;18.10;69.20
68766;DHT22;55756;45.582;11.484;2023-04-24T03:35:40;18.10;69.40
68766;DHT22;55756;45.582;11.484;2023-04-24T03:38:09;18.10;69.50
68766;DHT22;55756;45.582;11.484;2023-04-24T03:40:53;18.10;69.70
68766;DHT22;55756;45.582;11.484;2023-04-24T03:43:42;18.10;69.70
68766;DHT22;55756;45.582;11.484;2023-04-24T03:46:09;18.00;69.70
68766;DHT22;55756;45.582;11.484;2023-04-24T03:48:39;18.00;69.70
68766;DHT22;55756;45.582;11.484;2023-04-24T03:51:09;18.00;69.70
68766;DHT22;55756;45.582;11.484;2023-04-24T03:53:37;18.00;69.70
68766;DHT22;55756;45.582;11.484;2023-04-24T03:56:03;17.90;69.80
68766;DHT22;55756;45.582;11.484;2023-04-24T03:58:31;17.80;70.10
68766;DHT22;55756;45.582;11.484;2023-04-24T04:00:57;17.80;70.30
68766;DHT22;55756;45.582;11.484;2023-04-24T04:03:44;17.80;70.40
68766;DHT22;55756;45.582;11.484;2023-04-24T04:06:10;17.90;70.30
68766;DHT22;55756;45.582;11.484;2023-04-24T04:08:37;17.90;70.30
68766;DHT22;55756;45.582;11.484;2023-04-24T04:11:03;17.90;70.40
68766;DHT22;55756;45.582;11.484;2023-04-24T04:13:29;17.80;70.50
68766;DHT22;55756;45.582;11.484;2023-04-24T04:15:55;17.80;70.60
68766;DHT22;55756;45.582;11.484;2023-04-24T04:18:21;17.80;70.80
68766;DHT22;55756;45.582;11.484;2023-04-24T04:20:47;17.80;71.00
68766;DHT22;55756;45.582;11.484;2023-04-24T04:23:14;17.80;71.10
68766;DHT22;55756;45.582;11.484;2023-04-24T04:25:58;17.80;71.10
68766;DHT22;55756;45.582;11.484;2023-04-24T04:28:35;17.80;71.10
68766;DHT22;55756;45.582;11.484;2023-04-24T04:31:01;17.70;71.30
68766;DHT22;55756;45.582;11.484;2023-04-24T04:33:26;17.70;71.40
68766;DHT22;55756;45.582;11.484;2023-04-24T04:35:52;17.60;71.40
68766;DHT22;55756;45.582;11.484;2023-04-24T04:38:20;17.70;71.30
68766;DHT22;55756;45.582;11.484;2023-04-24T04:40:52;17.60;71.30
68766;DHT22;55756;45.582;11.484;2023-04-24T04:43:21;17.60;71.30
68766;DHT22;55756;45.582;11.484;2023-04-24T04:45:52;17.60;71.40
68766;DHT22;55756;45.582;11.484;2023-04-24T04:48:53;17.60;71.40
68766;DHT22;55756;45.582;11.484;2023-04-24T04:51:19;17.60;71.30
68766;DHT22;55756;45.582;11.484;2023-04-24T04:53:46;17.50;71.30
68766;DHT22;55756;45.582;11.484;2023-04-24T04:56:12;17.50;71.00
68766;DHT22;55756;45.582;11.484;2023-04-24T04:58:44;17.50;71.20
68766;DHT22;55756;45.582;11.484;2023-04-24T05:01:13;17.40;71.20
68766;DHT22;55756;45.582;11.484;2023-04-24T05:03:42;17.40;71.20
68766;DHT22;55756;45.582;11.484;2023-04-24T05:06:11;17.40;71.20
68766;DHT22;55756;45.582;11.484;2023-04-24T05:08:39;17.40;71.00
68766;DHT22;55756;45.582;11.484;2023-04-24T05:11:08;17.40;71.20
68766;DHT22;55756;45.582;11.484;2023-04-24T05:13:35;17.40;71.10
68766;DHT22;55756;45.582;11.484;2023-04-24T05:16:03;17.40;70.80
68766;DHT22;55756;45.582;11.484;2023-04-24T05:18:30;17.40;70.70
68766;DHT22;55756;45.582;11.484;2023-04-24T05:20:56;17.40;70.80
68766;DHT22;55756;45.582;11.484;2023-04-24T05:23:23;17.40;71.00
68766;DHT22;55756;45.582;11.484;2023-04-24T05:25:52;17.30;71.10
68766;DHT22;55756;45.582;11.484;2023-04-24T05:28:19;17.30;71.30
68766;DHT22;55756;45.582;11.484;2023-04-24T05:30:53;17.30;71.30
68766;DHT22;55756;45.582;11.484;2023-04-24T05:33:20;17.30;71.10
68766;DHT22;55756;45.582;11.484;2023-04-24T05:35:46;17.30;71.20
68766;DHT22;55756;45.582;11.484;2023-04-24T05:38:12;17.20;71.30
68766;DHT22;55756;45.582;11.484;2023-04-24T05:40:39;17.10;71.60
68766;DHT22;55756;45.582;11.484;2023-04-24T05:43:05;17.20;71.80
68766;DHT22;55756;45.582;11.484;2023-04-24T05:45:30;17.20;71.90
68766;DHT22;55756;45.582;11.484;2023-04-24T05:47:57;17.20;71.70
68766;DHT22;55756;45.582;11.484;2023-04-24T05:50:23;17.10;71.80
68766;DHT22;55756;45.582;11.484;2023-04-24T05:52:49;17.20;71.90
68766;DHT22;55756;45.582;11.484;2023-04-24T05:55:25;17.10;71.90
68766;DHT22;55756;45.582;11.484;2023-04-24T05:57:52;17.10;72.00
68766;DHT22;55756;45.582;11.484;2023-04-24T06:00:18;17.10;72.00
68766;DHT22;55756;45.582;11.484;2023-04-24T06:02:51;17.10;71.80
68766;DHT22;55756;45.582;11.484;2023-04-24T06:05:20;17.00;71.90
68766;DHT22;55756;45.582;11.484;2023-04-24T06:07:45;17.10;71.80
68766;DHT22;55756;45.582;11.484;2023-04-24T06:10:11;17.00;71.80
68766;DHT22;55756;45.582;11.484;2023-04-24T06:12:41;17.00;71.90
68766;DHT22;55756;45.582;11.484;2023-04-24T06:15:12;17.00;71.70
68766;DHT22;55756;45.582;11.484;2023-04-24T06:17:51;17.00;71.90
68766;DHT22;55756;45.582;11.484;2023-04-24T06:20:18;16.90;71.70
68766;DHT22;55756;45.582;11.484;2023-04-24T06:22:43;16.90;71.90
68766;DHT22;55756;45.582;11.484;2023-04-24T06:25:10;16.90;72.00
68766;DHT22;55756;45.582;11.484;2023-04-24T06:27:36;16.90;72.00
68766;DHT22;55756;45.582;11.484;2023-04-24T06:30:02;16.90;72.20
68766;DHT22;55756;45.582;11.484;2023-04-24T06:32:28;16.80;72.40
68766;DHT22;55756;45.582;11.484;2023-04-24T06:34:53;16.70;72.80
68766;DHT22;55756;45.582;11.484;2023-04-24T06:37:23;16.70;72.90
68766;DHT22;55756;45.582;11.484;2023-04-24T06:39:49;16.70;73.10
68766;DHT22;55756;45.582;11.484;2023-04-24T06:42:14;16.60;73.30
68766;DHT22;55756;45.582;11.484;2023-04-24T06:44:43;16.60;73.30
68766;DHT22;55756;45.582;11.484;2023-04-24T06:47:10;16.50;73.40
68766;DHT22;55756;45.582;11.484;2023-04-24T06:49:36;16.40;73.00
68766;DHT22;55756;45.582;11.484;2023-04-24T06:52:02;16.30;72.60
68766;DHT22;55756;45.582;11.484;2023-04-24T06:54:29;16.20;71.60
68766;DHT22;55756;45.582;11.484;2023-04-24T06:56:54;16.10;70.90
68766;DHT22;55756;45.582;11.484;2023-04-24T06:59:20;16.00;70.80
68766;DHT22;55756;45.582;11.484;2023-04-24T07:01:46;15.90;70.20
68766;DHT22;55756;45.582;11.484;2023-04-24T07:04:12;15.90;70.00
68766;DHT22;55756;45.582;11.484;2023-04-24T07:06:38;15.80;69.80
68766;DHT22;55756;45.582;11.484;2023-04-24T07:09:05;15.80;69.10
68766;DHT22;55756;45.582;11.484;2023-04-24T07:11:30;15.80;68.80
68766;DHT22;55756;45.582;11.484;2023-04-24T07:13:57;15.70;68.30
68766;DHT22;55756;45.582;11.484;2023-04-24T07:16:22;15.70;68.00
68766;DHT22;55756;45.582;11.484;2023-04-24T07:18:50;15.70;68.20
68766;DHT22;55756;45.582;11.484;2023-04-24T07:21:15;15.70;68.20
68766;DHT22;55756;45.582;11.484;2023-04-24T07:23:41;15.70;68.30
68766;DHT22;55756;45.582;11.484;2023-04-24T07:26:07;15.80;68.00
68766;DHT22;55756;45.582;11.484;2023-04-24T07:28:33;15.80;67.70
68766;DHT22;55756;45.582;11.484;2023-04-24T07:30:59;15.90;67.20
68766;DHT22;55756;45.582;11.484;2023-04-24T07:33:26;15.90;67.00
68766;DHT22;55756;45.582;11.484;2023-04-24T07:35:52;15.90;66.30
68766;DHT22;55756;45.582;11.484;2023-04-24T07:38:18;15.90;65.90
68766;DHT22;55756;45.582;11.484;2023-04-24T07:40:47;16.00;66.00
68766;DHT22;55756;45.582;11.484;2023-04-24T07:43:13;16.10;66.10
68766;DHT22;55756;45.582;11.484;2023-04-24T07:45:41;16.10;66.30
68766;DHT22;55756;45.582;11.484;2023-04-24T07:48:07;16.20;66.10
68766;DHT22;55756;45.582;11.484;2023-04-24T07:50:34;16.30;66.20
68766;DHT22;55756;45.582;11.484;2023-04-24T07:53:01;16.40;66.10
68766;DHT22;55756;45.582;11.484;2023-04-24T07:55:27;16.40;66.80
68766;DHT22;55756;45.582;11.484;2023-04-24T07:57:53;16.50;67.70
68766;DHT22;55756;45.582;11.484;2023-04-24T08:00:19;16.50;68.30
68766;DHT22;55756;45.582;11.484;2023-04-24T08:02:45;16.50;68.30
68766;DHT22;55756;45.582;11.484;2023-04-24T08:05:11;16.60;68.40
68766;DHT22;55756;45.582;11.484;2023-04-24T08:07:36;16.70;69.00
68766;DHT22;55756;45.582;11.484;2023-04-24T08:10:03;16.70;68.90
68766;DHT22;55756;45.582;11.484;2023-04-24T08:12:29;16.70;68.30
68766;DHT22;55756;45.582;11.484;2023-04-24T08:14:55;16.70;67.80
68766;DHT22;55756;45.582;11.484;2023-04-24T08:17:21;16.80;67.60
68766;DHT22;55756;45.582;11.484;2023-04-24T08:19:47;16.80;67.40
68766;DHT22;55756;45.582;11.484;2023-04-24T08:22:17;16.90;67.40
68766;DHT22;55756;45.582;11.484;2023-04-24T08:24:42;16.90;67.50
68766;DHT22;55756;45.582;11.484;2023-04-24T08:27:09;17.00;67.80
68766;DHT22;55756;45.582;11.484;2023-04-24T08:29:36;17.00;67.30
68766;DHT22;55756;45.582;11.484;2023-04-24T08:32:02;17.10;66.70
68766;DHT22;55756;45.582;11.484;2023-04-24T08:34:28;17.10;66.60
68766;DHT22;55756;45.582;11.484;2023-04-24T08:36:54;17.20;66.70
68766;DHT22;55756;45.582;11.484;2023-04-24T08:39:20;17.30;67.00
68766;DHT22;55756;45.582;11.484;2023-04-24T08:41:48;17.30;67.40
68766;DHT22;55756;45.582;11.484;2023-04-24T08:44:14;17.40;67.50
68766;DHT22;55756;45.582;11.484;2023-04-24T08:46:43;17.40;66.90
68766;DHT22;55756;45.582;11.484;2023-04-24T08:49:12;17.50;67.00
68766;DHT22;55756;45.582;11.484;2023-04-24T08:51:39;17.50;66.90
68766;DHT22;55756;45.582;11.484;2023-04-24T08:54:05;17.50;66.30
68766;DHT22;55756;45.582;11.484;2023-04-24T08:56:34;17.60;67.20
68766;DHT22;55756;45.582;11.484;2023-04-24T08:59:04;17.50;66.50
68766;DHT22;55756;45.582;11.484;2023-04-24T09:01:32;17.50;66.20
68766;DHT22;55756;45.582;11.484;2023-04-24T09:04:03;17.50;66.00
68766;DHT22;55756;45.582;11.484;2023-04-24T09:06:30;17.60;66.50
68766;DHT22;55756;45.582;11.484;2023-04-24T09:09:00;17.60;65.80
68766;DHT22;55756;45.582;11.484;2023-04-24T09:11:27;17.70;66.00
68766;DHT22;55756;45.582;11.484;2023-04-24T09:13:54;17.70;66.50
68766;DHT22;55756;45.582;11.484;2023-04-24T09:16:20;17.80;67.10
68766;DHT22;55756;45.582;11.484;2023-04-24T09:18:46;17.80;67.40
68766;DHT22;55756;45.582;11.484;2023-04-24T09:21:12;17.90;67.70
68766;DHT22;55756;45.582;11.484;2023-04-24T09:23:38;17.90;68.70
68766;DHT22;55756;45.582;11.484;2023-04-24T09:26:20;17.90;68.90
68766;DHT22;55756;45.582;11.484;2023-04-24T09:28:50;17.90;69.10
68766;DHT22;55756;45.582;11.484;2023-04-24T09:31:18;18.00;69.50
68766;DHT22;55756;45.582;11.484;2023-04-24T09:33:59;18.00;69.70
68766;DHT22;55756;45.582;11.484;2023-04-24T09:36:30;18.00;69.70
68766;DHT22;55756;45.582;11.484;2023-04-24T09:39:02;18.10;69.60
68766;DHT22;55756;45.582;11.484;2023-04-24T09:41:28;18.20;69.50
68766;DHT22;55756;45.582;11.484;2023-04-24T09:43:56;18.20;69.50
68766;DHT22;55756;45.582;11.484;2023-04-24T09:46:34;18.20;69.00
68766;DHT22;55756;45.582;11.484;2023-04-24T09:49:15;18.20;68.80
68766;DHT22;55756;45.582;11.484;2023-04-24T09:51:43;18.30;68.50
68766;DHT22;55756;45.582;11.484;2023-04-24T09:54:16;18.30;68.60
68766;DHT22;55756;45.582;11.484;2023-04-24T09:56:44;18.30;68.50
68766;DHT22;55756;45.582;11.484;2023-04-24T09:59:11;18.40;68.80
68766;DHT22;55756;45.582;11.484;2023-04-24T10:01:37;18.40;68.80
68766;DHT22;55756;45.582;11.484;2023-04-24T10:04:04;18.40;68.70
68766;DHT22;55756;45.582;11.484;2023-04-24T10:06:32;18.40;68.60
68766;DHT22;55756;45.582;11.484;2023-04-24T10:08:58;18.50;68.60
68766;DHT22;55756;45.582;11.484;2023-04-24T10:11:27;18.50;68.50
68766;DHT22;55756;45.582;11.484;2023-04-24T10:13:53;18.60;68.30
68766;DHT22;55756;45.582;11.484;2023-04-24T10:16:20;18.70;67.50
68766;DHT22;55756;45.582;11.484;2023-04-24T10:18:48;18.70;66.90
68766;DHT22;55756;45.582;11.484;2023-04-24T10:21:15;18.70;66.60
68766;DHT22;55756;45.582;11.484;2023-04-24T10:23:42;18.80;65.70
68766;DHT22;55756;45.582;11.484;2023-04-24T10:26:12;18.80;65.50
68766;DHT22;55756;45.582;11.484;2023-04-24T10:28:45;18.90;65.30
68766;DHT22;55756;45.582;11.484;2023-04-24T10:31:12;18.90;65.80
68766;DHT22;55756;45.582;11.484;2023-04-24T10:33:42;19.00;66.00
68766;DHT22;55756;45.582;11.484;2023-04-24T10:36:12;19.00;65.80
68766;DHT22;55756;45.582;11.484;2023-04-24T10:38:41;19.00;66.10
68766;DHT22;55756;45.582;11.484;2023-04-24T10:41:09;19.00;66.20
68766;DHT22;55756;45.582;11.484;2023-04-24T10:43:41;19.00;65.90
68766;DHT22;55756;45.582;11.484;2023-04-24T10:46:22;19.10;65.40
68766;DHT22;55756;45.582;11.484;2023-04-24T10:48:54;19.10;65.50
68766;DHT22;55756;45.582;11.484;2023-04-24T10:51:23;19.10;65.20
68766;DHT22;55756;45.582;11.484;2023-04-24T10:53:52;19.10;65.00
68766;DHT22;55756;45.582;11.484;2023-04-24T10:56:18;19.10;64.80
68766;DHT22;55756;45.582;11.484;2023-04-24T10:58:45;19.20;64.70
68766;DHT22;55756;45.582;11.484;2023-04-24T11:01:24;19.20;64.40
68766;DHT22;55756;45.582;11.484;2023-04-24T11:04:03;19.30;64.10
68766;DHT22;55756;45.582;11.484;2023-04-24T11:06:36;19.30;63.70
68766;DHT22;55756;45.582;11.484;2023-04-24T11:09:09;19.30;63.20
68766;DHT22;55756;45.582;11.484;2023-04-24T11:11:38;19.30;63.20
68766;DHT22;55756;45.582;11.484;2023-04-24T11:14:10;19.30;63.70
68766;DHT22;55756;45.582;11.484;2023-04-24T11:16:51;19.30;64.00
68766;DHT22;55756;45.582;11.484;2023-04-24T11:19:18;19.30;63.90
68766;DHT22;55756;45.582;11.484;2023-04-24T11:21:54;19.40;63.80
68766;DHT22;55756;45.582;11.484;2023-04-24T11:24:48;19.40;63.40
68766;DHT22;55756;45.582;11.484;2023-04-24T11:27:30;19.40;63.70
68766;DHT22;55756;45.582;11.484;2023-04-24T11:34:59;19.50;63.30
68766;DHT22;55756;45.582;11.484;2023-04-24T11:37:40;19.50;63.20
68766;DHT22;55756;45.582;11.484;2023-04-24T11:40:12;19.50;62.90
68766;DHT22;55756;45.582;11.484;2023-04-24T11:42:51;19.50;63.00
68766;DHT22;55756;45.582;11.484;2023-04-24T11:45:23;19.50;62.80
68766;DHT22;55756;45.582;11.484;2023-04-24T11:47:49;19.60;62.80
68766;DHT22;55756;45.582;11.484;2023-04-24T11:50:17;19.50;62.00
68766;DHT22;55756;45.582;11.484;2023-04-24T11:52:45;19.60;61.70
68766;DHT22;55756;45.582;11.484;2023-04-24T11:57:42;19.60;61.60
68766;DHT22;55756;45.582;11.484;2023-04-24T12:00:21;19.60;61.50
68766;DHT22;55756;45.582;11.484;2023-04-24T12:02:48;19.70;61.40
68766;DHT22;55756;45.582;11.484;2023-04-24T12:05:26;19.60;61.60
68766;DHT22;55756;45.582;11.484;2023-04-24T12:07:52;19.70;61.70
68766;DHT22;55756;45.582;11.484;2023-04-24T12:10:27;19.70;61.50
68766;DHT22;55756;45.582;11.484;2023-04-24T12:12:54;19.70;61.50
68766;DHT22;55756;45.582;11.484;2023-04-24T12:15:21;19.80;60.80
68766;DHT22;55756;45.582;11.484;2023-04-24T12:17:47;19.80;60.80
68766;DHT22;55756;45.582;11.484;2023-04-24T12:20:13;19.90;59.60
68766;DHT22;55756;45.582;11.484;2023-04-24T12:22:55;19.80;59.60
68766;DHT22;55756;45.582;11.484;2023-04-24T12:25:23;19.90;59.10
68766;DHT22;55756;45.582;11.484;2023-04-24T12:28:09;19.90;58.80
68766;DHT22;55756;45.582;11.484;2023-04-24T12:30:48;19.90;58.10
68766;DHT22;55756;45.582;11.484;2023-04-24T12:33:18;20.00;56.90
68766;DHT22;55756;45.582;11.484;2023-04-24T12:35:45;19.90;57.10
68766;DHT22;55756;45.582;11.484;2023-04-24T12:38:16;19.90;57.60
68766;DHT22;55756;45.582;11.484;2023-04-24T12:40:43;20.00;57.50
68766;DHT22;55756;45.582;11.484;2023-04-24T12:43:17;19.90;57.20
68766;DHT22;55756;45.582;11.484;2023-04-24T12:45:43;20.00;57.20
68766;DHT22;55756;45.582;11.484;2023-04-24T12:48:10;20.00;56.20
68766;DHT22;55756;45.582;11.484;2023-04-24T12:50:37;20.00;56.30
68766;DHT22;55756;45.582;11.484;2023-04-24T12:53:03;20.00;56.90
68766;DHT22;55756;45.582;11.484;2023-04-24T12:55:29;19.90;56.50
68766;DHT22;55756;45.582;11.484;2023-04-24T12:57:55;20.00;56.40
68766;DHT22;55756;45.582;11.484;2023-04-24T13:00:21;20.00;56.60
68766;DHT22;55756;45.582;11.484;2023-04-24T13:02:50;20.00;55.80
68766;DHT22;55756;45.582;11.484;2023-04-24T13:05:16;19.90;56.10
68766;DHT22;55756;45.582;11.484;2023-04-24T13:07:42;19.90;55.50
68766;DHT22;55756;45.582;11.484;2023-04-24T13:10:08;19.90;56.00
68766;DHT22;55756;45.582;11.484;2023-04-24T13:12:35;19.90;55.60
68766;DHT22;55756;45.582;11.484;2023-04-24T13:15:01;19.90;55.40
68766;DHT22;55756;45.582;11.484;2023-04-24T13:17:27;19.90;55.10
68766;DHT22;55756;45.582;11.484;2023-04-24T13:19:55;19.90;55.00
68766;DHT22;55756;45.582;11.484;2023-04-24T13:22:20;19.90;54.70
68766;DHT22;55756;45.582;11.484;2023-04-24T13:24:46;19.90;54.40
68766;DHT22;55756;45.582;11.484;2023-04-24T13:27:39;19.90;54.30
68766;DHT22;55756;45.582;11.484;2023-04-24T13:30:06;19.90;54.00
68766;DHT22;55756;45.582;11.484;2023-04-24T13:32:32;19.90;54.80
68766;DHT22;55756;45.582;11.484;2023-04-24T13:34:58;19.90;54.80
68766;DHT22;55756;45.582;11.484;2023-04-24T13:37:24;19.90;55.40
68766;DHT22;55756;45.582;11.484;2023-04-24T13:39:50;19.90;55.00
68766;DHT22;55756;45.582;11.484;2023-04-24T13:42:18;19.90;54.50
68766;DHT22;55756;45.582;11.484;2023-04-24T13:44:45;19.90;54.30
68766;DHT22;55756;45.582;11.484;2023-04-24T13:47:11;19.90;55.10
68766;DHT22;55756;45.582;11.484;2023-04-24T13:49:38;19.90;55.30
68766;DHT22;55756;45.582;11.484;2023-04-24T13:52:04;19.90;55.50
68766;DHT22;55756;45.582;11.484;2023-04-24T13:54:29;19.90;55.40
68766;DHT22;55756;45.582;11.484;2023-04-24T13:56:57;19.90;55.20
68766;DHT22;55756;45.582;11.484;2023-04-24T13:59:24;19.90;55.20
68766;DHT22;55756;45.582;11.484;2023-04-24T14:01:50;20.00;54.90
68766;DHT22;55756;45.582;11.484;2023-04-24T14:04:16;20.00;54.90
68766;DHT22;55756;45.582;11.484;2023-04-24T14:06:42;19.90;54.60
68766;DHT22;55756;45.582;11.484;2023-04-24T14:09:08;20.00;55.10
68766;DHT22;55756;45.582;11.484;2023-04-24T14:11:34;20.00;55.10
68766;DHT22;55756;45.582;11.484;2023-04-24T14:14:00;20.00;55.20
68766;DHT22;55756;45.582;11.484;2023-04-24T14:16:26;20.00;55.20
68766;DHT22;55756;45.582;11.484;2023-04-24T14:18:53;20.00;55.20
68766;DHT22;55756;45.582;11.484;2023-04-24T14:21:19;20.00;55.40
68766;DHT22;55756;45.582;11.484;2023-04-24T14:23:44;19.90;55.80
68766;DHT22;55756;45.582;11.484;2023-04-24T14:26:11;19.90;55.50
68766;DHT22;55756;45.582;11.484;2023-04-24T14:28:36;19.90;55.40
68766;DHT22;55756;45.582;11.484;2023-04-24T14:31:02;20.00;55.20
68766;DHT22;55756;45.582;11.484;2023-04-24T14:33:28;20.00;55.40
68766;DHT22;55756;45.582;11.484;2023-04-24T14:35:54;20.00;55.60
68766;DHT22;55756;45.582;11.484;2023-04-24T14:38:20;20.00;56.20
68766;DHT22;55756;45.582;11.484;2023-04-24T14:40:46;20.00;56.10
68766;DHT22;55756;45.582;11.484;2023-04-24T14:43:12;20.10;56.50
68766;DHT22;55756;45.582;11.484;2023-04-24T14:45:38;20.10;56.60
68766;DHT22;55756;45.582;11.484;2023-04-24T14:48:05;20.10;57.00
68766;DHT22;55756;45.582;11.484;2023-04-24T14:50:31;20.20;56.70
68766;DHT22;55756;45.582;11.484;2023-04-24T14:52:58;20.20;56.70
68766;DHT22;55756;45.582;11.484;2023-04-24T14:55:24;20.10;57.10
68766;DHT22;55756;45.582;11.484;2023-04-24T14:57:52;20.10;57.30
68766;DHT22;55756;45.582;11.484;2023-04-24T15:00:18;20.10;57.40
68766;DHT22;55756;45.582;11.484;2023-04-24T15:02:45;20.10;57.60
68766;DHT22;55756;45.582;11.484;2023-04-24T15:05:11;20.00;57.80
68766;DHT22;55756;45.582;11.484;2023-04-24T15:07:38;20.00;57.50
68766;DHT22;55756;45.582;11.484;2023-04-24T15:10:04;20.00;57.80
68766;DHT22;55756;45.582;11.484;2023-04-24T15:12:30;19.90;58.20
68766;DHT22;55756;45.582;11.484;2023-04-24T15:14:57;19.90;58.30
68766;DHT22;55756;45.582;11.484;2023-04-24T15:17:22;19.90;58.60
68766;DHT22;55756;45.582;11.484;2023-04-24T15:19:48;19.90;59.20
68766;DHT22;55756;45.582;11.484;2023-04-24T15:22:14;19.90;59.30
68766;DHT22;55756;45.582;11.484;2023-04-24T15:24:40;19.90;59.60
68766;DHT22;55756;45.582;11.484;2023-04-24T15:27:09;19.90;59.60